sensor_id;sensor_type;location;lat;lon;timestamp;P1;durP1;ratioP1;P2;durP2;ratioP2
52878;SDS011;38747;53.140;6.498;2022-07-21T00:00:40;13.70;;;5.57;;
52878;SDS011;38747;53.140;6.498;2022-07-21T00:03:06;10.05;;;6.25;;
52878;SDS011;38747;53.140;6.498;2022-07-21T00:05:32;10.98;;;5.80;;
52878;SDS011;38747;53.140;6.498;2022-07-21T00:07:58;9.48;;;6.28;;
52878;SDS011;38747;53.140;6.498;2022-07-21T00:10:24;15.30;;;6.75;;
52878;SDS011;38747;53.140;6.498;2022-07-21T00:12:50;12.40;;;5.80;;
52878;SDS011;38747;53.140;6.498;2022-07-21T00:15:17;11.35;;;6.25;;
52878;SDS011;38747;53.140;6.498;2022-07-21T00:17:44;10.90;;;6.25;;
52878;SDS011;38747;53.140;6.498;2022-07-21T00:20:11;8.63;;;5.70;;
52878;SDS011;38747;53.140;6.498;2022-07-21T00:22:38;12.45;;;5.90;;
52878;SDS011;38747;53.140;6.498;2022-07-21T00:25:05;10.70;;;6.00;;
52878;SDS011;38747;53.140;6.498;2022-07-21T00:27:31;10.35;;;5.70;;
52878;SDS011;38747;53.140;6.498;2022-07-21T00:29:57;15.63;;;6.35;;
52878;SDS011;38747;53.140;6.498;2022-07-21T00:32:23;12.85;;;6.63;;
52878;SDS011;38747;53.140;6.498;2022-07-21T00:37:14;12.13;;;6.55;;
52878;SDS011;38747;53.140;6.498;2022-07-21T00:39:39;14.07;;;6.45;;
52878;SDS011;38747;53.140;6.498;2022-07-21T00:42:05;10.63;;;6.47;;
52878;SDS011;38747;53.140;6.498;2022-07-21T00:44:31;10.48;;;6.57;;
52878;SDS011;38747;53.140;6.498;2022-07-21T00:46:57;12.45;;;7.03;;
52878;SDS011;38747;53.140;6.498;2022-07-21T00:49:23;13.00;;;7.18;;
52878;SDS011;38747;53.140;6.498;2022-07-21T00:51:49;14.02;;;7.28;;
52878;SDS011;38747;53.140;6.498;2022-07-21T00:54:16;13.63;;;7.40;;
52878;SDS011;38747;53.140;6.498;2022-07-21T00:56:43;12.45;;;7.57;;
52878;SDS011;38747;53.140;6.498;2022-07-21T00:59:09;20.13;;;9.05;;
52878;SDS011;38747;53.140;6.498;2022-07-21T01:01:35;14.77;;;7.63;;
52878;SDS011;38747;53.140;6.498;2022-07-21T01:04:01;16.65;;;8.52;;
52878;SDS011;38747;53.140;6.498;2022-07-21T01:06:27;17.02;;;9.23;;
52878;SDS011;38747;53.140;6.498;2022-07-21T01:08:52;16.00;;;9.57;;
52878;SDS011;38747;53.140;6.498;2022-07-21T01:11:19;16.20;;;8.45;;
52878;SDS011;38747;53.140;6.498;2022-07-21T01:13:46;16.02;;;9.93;;
52878;SDS011;38747;53.140;6.498;2022-07-21T01:16:12;14.25;;;9.43;;
52878;SDS011;38747;53.140;6.498;2022-07-21T01:18:38;15.15;;;9.50;;
52878;SDS011;38747;53.140;6.498;2022-07-21T01:21:10;16.80;;;10.57;;
52878;SDS011;38747;53.140;6.498;2022-07-21T01:23:49;17.58;;;10.00;;
52878;SDS011;38747;53.140;6.498;2022-07-21T01:26:14;15.63;;;10.35;;
52878;SDS011;38747;53.140;6.498;2022-07-21T01:28:40;21.25;;;11.00;;
52878;SDS011;38747;53.140;6.498;2022-07-21T01:31:05;19.98;;;10.85;;
52878;SDS011;38747;53.140;6.498;2022-07-21T01:33:31;13.40;;;10.00;;
52878;SDS011;38747;53.140;6.498;2022-07-21T01:35:56;17.02;;;11.43;;
52878;SDS011;38747;53.140;6.498;2022-07-21T01:38:22;15.73;;;10.60;;
52878;SDS011;38747;53.140;6.498;2022-07-21T01:41:06;21.55;;;10.65;;
52878;SDS011;38747;53.140;6.498;2022-07-21T01:43:51;17.77;;;10.05;;
52878;SDS011;38747;53.140;6.498;2022-07-21T01:46:16;15.38;;;9.85;;
52878;SDS011;38747;53.140;6.498;2022-07-21T01:48:43;18.27;;;9.90;;
52878;SDS011;38747;53.140;6.498;2022-07-21T01:51:09;18.85;;;10.95;;
52878;SDS011;38747;53.140;6.498;2022-07-21T01:56:00;17.40;;;10.48;;
52878;SDS011;38747;53.140;6.498;2022-07-21T01:58:26;17.88;;;10.20;;
52878;SDS011;38747;53.140;6.498;2022-07-21T02:03:17;18.65;;;11.60;;
52878;SDS011;38747;53.140;6.498;2022-07-21T02:08:08;20.33;;;11.00;;
52878;SDS011;38747;53.140;6.498;2022-07-21T02:10:34;19.05;;;11.85;;
52878;SDS011;38747;53.140;6.498;2022-07-21T02:13:00;24.42;;;12.40;;
52878;SDS011;38747;53.140;6.498;2022-07-21T02:15:28;17.33;;;11.05;;
52878;SDS011;38747;53.140;6.498;2022-07-21T02:17:54;18.02;;;11.60;;
52878;SDS011;38747;53.140;6.498;2022-07-21T02:20:20;23.45;;;12.23;;
52878;SDS011;38747;53.140;6.498;2022-07-21T02:25:13;20.98;;;12.30;;
52878;SDS011;38747;53.140;6.498;2022-07-21T02:27:40;20.75;;;12.63;;
52878;SDS011;38747;53.140;6.498;2022-07-21T02:30:06;17.85;;;12.15;;
52878;SDS011;38747;53.140;6.498;2022-07-21T02:34:58;19.67;;;12.20;;
52878;SDS011;38747;53.140;6.498;2022-07-21T02:37:23;23.52;;;13.70;;
52878;SDS011;38747;53.140;6.498;2022-07-21T02:42:14;21.50;;;12.68;;
52878;SDS011;38747;53.140;6.498;2022-07-21T02:44:40;18.90;;;12.23;;
52878;SDS011;38747;53.140;6.498;2022-07-21T02:47:05;23.70;;;13.57;;
52878;SDS011;38747;53.140;6.498;2022-07-21T02:49:31;20.95;;;12.45;;
52878;SDS011;38747;53.140;6.498;2022-07-21T02:54:22;19.73;;;13.70;;
52878;SDS011;38747;53.140;6.498;2022-07-21T02:59:14;22.08;;;12.65;;
52878;SDS011;38747;53.140;6.498;2022-07-21T03:01:39;21.70;;;13.80;;
52878;SDS011;38747;53.140;6.498;2022-07-21T03:04:05;21.25;;;13.38;;
52878;SDS011;38747;53.140;6.498;2022-07-21T03:06:31;17.00;;;12.70;;
52878;SDS011;38747;53.140;6.498;2022-07-21T03:11:23;22.83;;;13.68;;
52878;SDS011;38747;53.140;6.498;2022-07-21T03:16:14;21.70;;;13.40;;
52878;SDS011;38747;53.140;6.498;2022-07-21T03:21:06;24.02;;;14.18;;
52878;SDS011;38747;53.140;6.498;2022-07-21T03:23:32;24.20;;;15.18;;
52878;SDS011;38747;53.140;6.498;2022-07-21T03:28:23;21.10;;;14.15;;
52878;SDS011;38747;53.140;6.498;2022-07-21T03:33:15;27.48;;;15.90;;
52878;SDS011;38747;53.140;6.498;2022-07-21T03:35:40;25.23;;;15.73;;
52878;SDS011;38747;53.140;6.498;2022-07-21T03:38:07;23.52;;;15.13;;
52878;SDS011;38747;53.140;6.498;2022-07-21T03:43:00;23.48;;;16.00;;
52878;SDS011;38747;53.140;6.498;2022-07-21T03:45:28;24.60;;;16.52;;
52878;SDS011;38747;53.140;6.498;2022-07-21T03:47:55;23.50;;;15.70;;
52878;SDS011;38747;53.140;6.498;2022-07-21T03:50:22;22.70;;;15.05;;
52878;SDS011;38747;53.140;6.498;2022-07-21T03:55:13;22.25;;;15.30;;
52878;SDS011;38747;53.140;6.498;2022-07-21T03:57:44;22.90;;;16.85;;
52878;SDS011;38747;53.140;6.498;2022-07-21T04:00:15;24.20;;;16.55;;
52878;SDS011;38747;53.140;6.498;2022-07-21T04:02:49;25.90;;;16.98;;
52878;SDS011;38747;53.140;6.498;2022-07-21T04:05:15;24.50;;;17.58;;
52878;SDS011;38747;53.140;6.498;2022-07-21T04:07:42;26.90;;;17.65;;
52878;SDS011;38747;53.140;6.498;2022-07-21T04:10:09;24.70;;;17.52;;
52878;SDS011;38747;53.140;6.498;2022-07-21T04:12:36;23.75;;;17.67;;
52878;SDS011;38747;53.140;6.498;2022-07-21T04:17:32;26.15;;;17.95;;
52878;SDS011;38747;53.140;6.498;2022-07-21T04:22:23;26.23;;;17.38;;
52878;SDS011;38747;53.140;6.498;2022-07-21T04:24:49;25.95;;;17.95;;
52878;SDS011;38747;53.140;6.498;2022-07-21T04:29:41;25.45;;;19.05;;
52878;SDS011;38747;53.140;6.498;2022-07-21T04:34:32;27.70;;;18.90;;
52878;SDS011;38747;53.140;6.498;2022-07-21T04:36:57;31.95;;;18.75;;
52878;SDS011;38747;53.140;6.498;2022-07-21T04:39:23;28.05;;;19.75;;
52878;SDS011;38747;53.140;6.498;2022-07-21T04:41:49;29.98;;;20.73;;
52878;SDS011;38747;53.140;6.498;2022-07-21T04:46:40;32.30;;;21.40;;
52878;SDS011;38747;53.140;6.498;2022-07-21T04:49:05;33.90;;;22.35;;
52878;SDS011;38747;53.140;6.498;2022-07-21T04:51:31;30.38;;;21.60;;
52878;SDS011;38747;53.140;6.498;2022-07-21T04:56:22;34.50;;;21.40;;
52878;SDS011;38747;53.140;6.498;2022-07-21T05:01:13;29.50;;;20.63;;
52878;SDS011;38747;53.140;6.498;2022-07-21T05:06:05;31.77;;;23.13;;
52878;SDS011;38747;53.140;6.498;2022-07-21T05:08:31;30.52;;;21.10;;
52878;SDS011;38747;53.140;6.498;2022-07-21T05:13:22;27.27;;;20.38;;
52878;SDS011;38747;53.140;6.498;2022-07-21T05:15:48;30.17;;;21.17;;
52878;SDS011;38747;53.140;6.498;2022-07-21T05:18:13;26.95;;;21.10;;
52878;SDS011;38747;53.140;6.498;2022-07-21T05:20:39;28.85;;;21.60;;
52878;SDS011;38747;53.140;6.498;2022-07-21T05:25:30;27.30;;;21.90;;
52878;SDS011;38747;53.140;6.498;2022-07-21T05:27:57;31.77;;;21.85;;
52878;SDS011;38747;53.140;6.498;2022-07-21T05:32:48;31.67;;;21.42;;
52878;SDS011;38747;53.140;6.498;2022-07-21T05:35:14;30.40;;;21.95;;
52878;SDS011;38747;53.140;6.498;2022-07-21T05:37:41;26.67;;;21.40;;
52878;SDS011;38747;53.140;6.498;2022-07-21T05:40:07;26.45;;;21.42;;
52878;SDS011;38747;53.140;6.498;2022-07-21T05:42:34;28.80;;;21.40;;
52878;SDS011;38747;53.140;6.498;2022-07-21T05:47:25;28.98;;;21.50;;
52878;SDS011;38747;53.140;6.498;2022-07-21T05:49:51;27.45;;;20.38;;
52878;SDS011;38747;53.140;6.498;2022-07-21T05:52:16;28.20;;;20.25;;
52878;SDS011;38747;53.140;6.498;2022-07-21T05:54:42;28.15;;;20.05;;
52878;SDS011;38747;53.140;6.498;2022-07-21T05:57:08;26.70;;;20.52;;
52878;SDS011;38747;53.140;6.498;2022-07-21T06:01:59;30.35;;;20.45;;
52878;SDS011;38747;53.140;6.498;2022-07-21T06:04:24;26.38;;;21.02;;
52878;SDS011;38747;53.140;6.498;2022-07-21T06:06:50;28.83;;;21.88;;
52878;SDS011;38747;53.140;6.498;2022-07-21T06:09:17;28.27;;;20.17;;
52878;SDS011;38747;53.140;6.498;2022-07-21T06:11:43;27.40;;;20.92;;
52878;SDS011;38747;53.140;6.498;2022-07-21T06:16:34;28.58;;;21.20;;
52878;SDS011;38747;53.140;6.498;2022-07-21T06:19:00;28.27;;;21.15;;
52878;SDS011;38747;53.140;6.498;2022-07-21T06:21:26;27.80;;;21.48;;
52878;SDS011;38747;53.140;6.498;2022-07-21T06:23:52;27.83;;;21.23;;
52878;SDS011;38747;53.140;6.498;2022-07-21T06:28:44;26.30;;;20.38;;
52878;SDS011;38747;53.140;6.498;2022-07-21T06:31:09;29.20;;;21.15;;
52878;SDS011;38747;53.140;6.498;2022-07-21T06:36:01;28.85;;;21.42;;
52878;SDS011;38747;53.140;6.498;2022-07-21T06:40:52;28.15;;;20.52;;
52878;SDS011;38747;53.140;6.498;2022-07-21T06:45:43;26.27;;;20.98;;
52878;SDS011;38747;53.140;6.498;2022-07-21T06:48:09;27.67;;;21.45;;
52878;SDS011;38747;53.140;6.498;2022-07-21T06:50:35;28.25;;;22.42;;
52878;SDS011;38747;53.140;6.498;2022-07-21T06:53:02;29.08;;;22.55;;
52878;SDS011;38747;53.140;6.498;2022-07-21T06:55:28;28.55;;;22.98;;
52878;SDS011;38747;53.140;6.498;2022-07-21T07:00:19;30.52;;;23.42;;
52878;SDS011;38747;53.140;6.498;2022-07-21T07:05:10;33.03;;;25.02;;
52878;SDS011;38747;53.140;6.498;2022-07-21T07:07:36;35.03;;;26.30;;
52878;SDS011;38747;53.140;6.498;2022-07-21T07:12:28;35.28;;;26.80;;
52878;SDS011;38747;53.140;6.498;2022-07-21T07:17:19;35.60;;;27.80;;
52878;SDS011;38747;53.140;6.498;2022-07-21T07:19:47;36.70;;;27.13;;
52878;SDS011;38747;53.140;6.498;2022-07-21T07:22:13;35.25;;;26.88;;
52878;SDS011;38747;53.140;6.498;2022-07-21T07:24:40;35.90;;;26.58;;
52878;SDS011;38747;53.140;6.498;2022-07-21T07:29:31;32.38;;;25.90;;
52878;SDS011;38747;53.140;6.498;2022-07-21T07:34:23;32.55;;;24.95;;
52878;SDS011;38747;53.140;6.498;2022-07-21T07:39:14;28.48;;;23.88;;
52878;SDS011;38747;53.140;6.498;2022-07-21T07:41:40;29.50;;;23.38;;
52878;SDS011;38747;53.140;6.498;2022-07-21T07:44:07;30.02;;;24.05;;
52878;SDS011;38747;53.140;6.498;2022-07-21T07:48:58;27.60;;;22.73;;
52878;SDS011;38747;53.140;6.498;2022-07-21T07:51:26;31.20;;;23.35;;
52878;SDS011;38747;53.140;6.498;2022-07-21T07:56:18;30.15;;;23.33;;
52878;SDS011;38747;53.140;6.498;2022-07-21T07:58:43;28.70;;;24.10;;
52878;SDS011;38747;53.140;6.498;2022-07-21T08:01:09;31.58;;;22.83;;
52878;SDS011;38747;53.140;6.498;2022-07-21T08:03:35;31.98;;;23.10;;
52878;SDS011;38747;53.140;6.498;2022-07-21T08:06:01;29.52;;;23.45;;
52878;SDS011;38747;53.140;6.498;2022-07-21T08:08:28;26.48;;;23.63;;
52878;SDS011;38747;53.140;6.498;2022-07-21T08:10:58;30.02;;;24.67;;
52878;SDS011;38747;53.140;6.498;2022-07-21T08:13:24;28.60;;;24.23;;
52878;SDS011;38747;53.140;6.498;2022-07-21T08:18:15;31.58;;;23.63;;
52878;SDS011;38747;53.140;6.498;2022-07-21T08:20:42;30.30;;;24.55;;
52878;SDS011;38747;53.140;6.498;2022-07-21T08:23:08;31.63;;;25.05;;
52878;SDS011;38747;53.140;6.498;2022-07-21T08:25:33;29.90;;;24.63;;
52878;SDS011;38747;53.140;6.498;2022-07-21T08:28:00;32.95;;;25.08;;
52878;SDS011;38747;53.140;6.498;2022-07-21T08:30:25;32.17;;;24.73;;
52878;SDS011;38747;53.140;6.498;2022-07-21T08:32:51;30.95;;;25.45;;
52878;SDS011;38747;53.140;6.498;2022-07-21T08:35:17;34.72;;;25.45;;
52878;SDS011;38747;53.140;6.498;2022-07-21T08:37:51;31.95;;;25.55;;
52878;SDS011;38747;53.140;6.498;2022-07-21T08:40:25;30.38;;;25.17;;
52878;SDS011;38747;53.140;6.498;2022-07-21T08:42:52;31.85;;;25.15;;
52878;SDS011;38747;53.140;6.498;2022-07-21T08:45:18;31.17;;;24.65;;
52878;SDS011;38747;53.140;6.498;2022-07-21T08:47:45;32.90;;;26.58;;
52878;SDS011;38747;53.140;6.498;2022-07-21T08:50:11;32.97;;;25.83;;
52878;SDS011;38747;53.140;6.498;2022-07-21T08:52:37;37.53;;;27.40;;
52878;SDS011;38747;53.140;6.498;2022-07-21T08:55:03;30.08;;;25.80;;
52878;SDS011;38747;53.140;6.498;2022-07-21T08:57:29;36.70;;;27.00;;
52878;SDS011;38747;53.140;6.498;2022-07-21T08:59:55;35.63;;;27.77;;
52878;SDS011;38747;53.140;6.498;2022-07-21T09:02:38;35.55;;;28.67;;
52878;SDS011;38747;53.140;6.498;2022-07-21T09:05:06;37.75;;;28.00;;
52878;SDS011;38747;53.140;6.498;2022-07-21T09:07:53;37.33;;;29.02;;
52878;SDS011;38747;53.140;6.498;2022-07-21T09:10:23;40.42;;;30.10;;
52878;SDS011;38747;53.140;6.498;2022-07-21T09:12:51;42.88;;;30.02;;
52878;SDS011;38747;53.140;6.498;2022-07-21T09:15:20;45.00;;;31.95;;
52878;SDS011;38747;53.140;6.498;2022-07-21T09:18:02;45.65;;;33.90;;
52878;SDS011;38747;53.140;6.498;2022-07-21T09:20:32;48.03;;;33.33;;
52878;SDS011;38747;53.140;6.498;2022-07-21T09:23:09;45.13;;;34.78;;
52878;SDS011;38747;53.140;6.498;2022-07-21T09:25:40;45.17;;;33.92;;
52878;SDS011;38747;53.140;6.498;2022-07-21T09:28:12;47.80;;;33.90;;
52878;SDS011;38747;53.140;6.498;2022-07-21T09:36:09;44.00;;;32.80;;
52878;SDS011;38747;53.140;6.498;2022-07-21T09:38:37;44.22;;;33.10;;
52878;SDS011;38747;53.140;6.498;2022-07-21T09:41:09;44.50;;;32.63;;
52878;SDS011;38747;53.140;6.498;2022-07-21T09:43:43;42.22;;;31.15;;
52878;SDS011;38747;53.140;6.498;2022-07-21T09:46:15;42.35;;;31.80;;
52878;SDS011;38747;53.140;6.498;2022-07-21T09:48:44;42.65;;;31.85;;
52878;SDS011;38747;53.140;6.498;2022-07-21T09:56:30;43.45;;;32.90;;
52878;SDS011;38747;53.140;6.498;2022-07-21T09:59:01;47.45;;;35.85;;
52878;SDS011;38747;53.140;6.498;2022-07-21T10:01:28;51.35;;;36.58;;
52878;SDS011;38747;53.140;6.498;2022-07-21T10:03:55;46.65;;;35.67;;
52878;SDS011;38747;53.140;6.498;2022-07-21T10:06:31;47.50;;;35.42;;
52878;SDS011;38747;53.140;6.498;2022-07-21T10:09:00;47.08;;;33.90;;
52878;SDS011;38747;53.140;6.498;2022-07-21T10:11:27;49.38;;;36.08;;
52878;SDS011;38747;53.140;6.498;2022-07-21T10:13:53;46.55;;;34.10;;
52878;SDS011;38747;53.140;6.498;2022-07-21T10:16:20;45.38;;;34.30;;
52878;SDS011;38747;53.140;6.498;2022-07-21T10:18:54;51.25;;;34.97;;
52878;SDS011;38747;53.140;6.498;2022-07-21T10:23:55;40.80;;;31.95;;
52878;SDS011;38747;53.140;6.498;2022-07-21T10:26:21;41.88;;;32.50;;
52878;SDS011;38747;53.140;6.498;2022-07-21T10:28:47;40.78;;;30.95;;
52878;SDS011;38747;53.140;6.498;2022-07-21T10:44:41;38.42;;;30.48;;
52878;SDS011;38747;53.140;6.498;2022-07-21T10:49:41;36.88;;;29.95;;
52878;SDS011;38747;53.140;6.498;2022-07-21T10:52:51;39.47;;;32.35;;
52878;SDS011;38747;53.140;6.498;2022-07-21T10:57:35;42.60;;;30.92;;
52878;SDS011;38747;53.140;6.498;2022-07-21T11:00:24;37.47;;;30.60;;
52878;SDS011;38747;53.140;6.498;2022-07-21T11:02:59;35.80;;;29.00;;
52878;SDS011;38747;53.140;6.498;2022-07-21T11:05:27;36.17;;;30.75;;
52878;SDS011;38747;53.140;6.498;2022-07-21T11:10:46;37.67;;;28.92;;
52878;SDS011;38747;53.140;6.498;2022-07-21T11:13:17;34.50;;;27.90;;
52878;SDS011;38747;53.140;6.498;2022-07-21T11:18:19;38.30;;;29.90;;
52878;SDS011;38747;53.140;6.498;2022-07-21T11:21:07;35.13;;;27.60;;
52878;SDS011;38747;53.140;6.498;2022-07-21T11:23:37;37.15;;;28.50;;
52878;SDS011;38747;53.140;6.498;2022-07-21T11:26:04;29.95;;;24.17;;
52878;SDS011;38747;53.140;6.498;2022-07-21T11:28:30;28.85;;;22.20;;
52878;SDS011;38747;53.140;6.498;2022-07-21T11:33:51;21.75;;;17.85;;
52878;SDS011;38747;53.140;6.498;2022-07-21T11:36:23;21.08;;;18.67;;
52878;SDS011;38747;53.140;6.498;2022-07-21T11:38:58;19.02;;;12.95;;
52878;SDS011;38747;53.140;6.498;2022-07-21T11:41:26;16.38;;;11.70;;
52878;SDS011;38747;53.140;6.498;2022-07-21T11:43:51;15.18;;;11.55;;
52878;SDS011;38747;53.140;6.498;2022-07-21T11:46:17;11.20;;;9.90;;
52878;SDS011;38747;53.140;6.498;2022-07-21T11:48:43;13.15;;;9.73;;
52878;SDS011;38747;53.140;6.498;2022-07-21T11:51:09;11.40;;;9.80;;
52878;SDS011;38747;53.140;6.498;2022-07-21T11:53:34;11.98;;;9.48;;
52878;SDS011;38747;53.140;6.498;2022-07-21T11:56:00;15.10;;;11.90;;
52878;SDS011;38747;53.140;6.498;2022-07-21T11:58:26;15.23;;;13.30;;
52878;SDS011;38747;53.140;6.498;2022-07-21T12:01:05;15.82;;;12.10;;
52878;SDS011;38747;53.140;6.498;2022-07-21T12:03:32;14.05;;;12.55;;
52878;SDS011;38747;53.140;6.498;2022-07-21T12:05:59;14.35;;;12.80;;
52878;SDS011;38747;53.140;6.498;2022-07-21T12:08:28;14.98;;;12.70;;
52878;SDS011;38747;53.140;6.498;2022-07-21T12:11:07;13.05;;;10.95;;
52878;SDS011;38747;53.140;6.498;2022-07-21T12:13:55;12.18;;;10.48;;
52878;SDS011;38747;53.140;6.498;2022-07-21T12:16:23;13.43;;;11.77;;
52878;SDS011;38747;53.140;6.498;2022-07-21T12:18:49;12.57;;;11.07;;
52878;SDS011;38747;53.140;6.498;2022-07-21T12:22:09;15.77;;;12.68;;
52878;SDS011;38747;53.140;6.498;2022-07-21T12:27:13;13.98;;;11.63;;
52878;SDS011;38747;53.140;6.498;2022-07-21T12:29:41;13.02;;;10.90;;
52878;SDS011;38747;53.140;6.498;2022-07-21T12:32:07;12.90;;;10.23;;
52878;SDS011;38747;53.140;6.498;2022-07-21T12:34:33;13.52;;;10.30;;
52878;SDS011;38747;53.140;6.498;2022-07-21T12:37:16;12.43;;;10.55;;
52878;SDS011;38747;53.140;6.498;2022-07-21T12:39:42;12.73;;;10.35;;
52878;SDS011;38747;53.140;6.498;2022-07-21T12:42:34;11.23;;;9.70;;
52878;SDS011;38747;53.140;6.498;2022-07-21T12:45:11;10.70;;;9.50;;
52878;SDS011;38747;53.140;6.498;2022-07-21T12:47:40;11.02;;;9.85;;
52878;SDS011;38747;53.140;6.498;2022-07-21T12:50:07;12.20;;;9.68;;
52878;SDS011;38747;53.140;6.498;2022-07-21T12:52:38;13.00;;;10.55;;
52878;SDS011;38747;53.140;6.498;2022-07-21T12:55:04;10.32;;;9.05;;
52878;SDS011;38747;53.140;6.498;2022-07-21T12:57:31;10.30;;;8.60;;
52878;SDS011;38747;53.140;6.498;2022-07-21T12:59:58;10.85;;;9.40;;
52878;SDS011;38747;53.140;6.498;2022-07-21T13:02:25;11.90;;;8.60;;
52878;SDS011;38747;53.140;6.498;2022-07-21T13:04:51;9.65;;;7.70;;
52878;SDS011;38747;53.140;6.498;2022-07-21T13:07:17;11.25;;;9.70;;
52878;SDS011;38747;53.140;6.498;2022-07-21T13:09:43;10.55;;;8.27;;
52878;SDS011;38747;53.140;6.498;2022-07-21T13:12:11;13.45;;;9.52;;
52878;SDS011;38747;53.140;6.498;2022-07-21T13:14:37;10.98;;;7.60;;
52878;SDS011;38747;53.140;6.498;2022-07-21T13:17:03;8.70;;;7.80;;
52878;SDS011;38747;53.140;6.498;2022-07-21T13:19:28;9.85;;;8.18;;
52878;SDS011;38747;53.140;6.498;2022-07-21T13:21:54;9.02;;;7.05;;
52878;SDS011;38747;53.140;6.498;2022-07-21T13:24:20;8.05;;;6.10;;
52878;SDS011;38747;53.140;6.498;2022-07-21T13:26:45;8.35;;;5.70;;
52878;SDS011;38747;53.140;6.498;2022-07-21T13:29:11;6.40;;;5.63;;
52878;SDS011;38747;53.140;6.498;2022-07-21T13:31:37;7.78;;;5.78;;
52878;SDS011;38747;53.140;6.498;2022-07-21T13:34:03;7.72;;;6.35;;
52878;SDS011;38747;53.140;6.498;2022-07-21T13:36:32;8.32;;;5.88;;
52878;SDS011;38747;53.140;6.498;2022-07-21T13:38:58;7.95;;;6.40;;
52878;SDS011;38747;53.140;6.498;2022-07-21T13:41:24;8.75;;;5.85;;
52878;SDS011;38747;53.140;6.498;2022-07-21T13:43:50;8.05;;;5.70;;
52878;SDS011;38747;53.140;6.498;2022-07-21T13:46:16;7.95;;;6.15;;
52878;SDS011;38747;53.140;6.498;2022-07-21T13:48:41;7.25;;;6.03;;
52878;SDS011;38747;53.140;6.498;2022-07-21T13:51:07;8.68;;;5.45;;
52878;SDS011;38747;53.140;6.498;2022-07-21T13:53:34;7.18;;;5.40;;
52878;SDS011;38747;53.140;6.498;2022-07-21T13:55:59;9.32;;;5.88;;
52878;SDS011;38747;53.140;6.498;2022-07-21T13:58:25;8.30;;;5.63;;
52878;SDS011;38747;53.140;6.498;2022-07-21T14:00:50;6.40;;;5.60;;
52878;SDS011;38747;53.140;6.498;2022-07-21T14:03:18;5.78;;;5.10;;
52878;SDS011;38747;53.140;6.498;2022-07-21T14:05:43;7.25;;;4.65;;
52878;SDS011;38747;53.140;6.498;2022-07-21T14:08:09;6.03;;;4.28;;
52878;SDS011;38747;53.140;6.498;2022-07-21T14:10:35;7.43;;;4.80;;
52878;SDS011;38747;53.140;6.498;2022-07-21T14:13:00;7.07;;;5.05;;
52878;SDS011;38747;53.140;6.498;2022-07-21T14:15:26;6.28;;;4.90;;
52878;SDS011;38747;53.140;6.498;2022-07-21T14:17:52;7.50;;;5.07;;
52878;SDS011;38747;53.140;6.498;2022-07-21T14:20:17;7.20;;;4.88;;
52878;SDS011;38747;53.140;6.498;2022-07-21T14:22:43;7.43;;;5.57;;
52878;SDS011;38747;53.140;6.498;2022-07-21T14:25:09;6.68;;;4.90;;
52878;SDS011;38747;53.140;6.498;2022-07-21T14:27:44;8.43;;;5.28;;
52878;SDS011;38747;53.140;6.498;2022-07-21T14:30:10;6.00;;;4.53;;
52878;SDS011;38747;53.140;6.498;2022-07-21T14:32:36;6.55;;;4.47;;
52878;SDS011;38747;53.140;6.498;2022-07-21T14:35:01;4.95;;;3.80;;
52878;SDS011;38747;53.140;6.498;2022-07-21T14:37:27;5.43;;;3.88;;
52878;SDS011;38747;53.140;6.498;2022-07-21T14:39:53;8.93;;;4.45;;
52878;SDS011;38747;53.140;6.498;2022-07-21T14:42:19;6.47;;;4.28;;
52878;SDS011;38747;53.140;6.498;2022-07-21T14:44:45;7.78;;;4.70;;
52878;SDS011;38747;53.140;6.498;2022-07-21T14:47:12;6.65;;;4.80;;
52878;SDS011;38747;53.140;6.498;2022-07-21T14:49:37;6.50;;;4.38;;
52878;SDS011;38747;53.140;6.498;2022-07-21T14:52:03;6.88;;;4.63;;
52878;SDS011;38747;53.140;6.498;2022-07-21T14:54:29;6.93;;;4.70;;
52878;SDS011;38747;53.140;6.498;2022-07-21T14:56:55;7.07;;;4.75;;
52878;SDS011;38747;53.140;6.498;2022-07-21T14:59:21;7.95;;;5.00;;
52878;SDS011;38747;53.140;6.498;2022-07-21T15:01:47;8.98;;;4.97;;
52878;SDS011;38747;53.140;6.498;2022-07-21T15:04:12;6.88;;;5.00;;
52878;SDS011;38747;53.140;6.498;2022-07-21T15:06:38;6.65;;;4.85;;
52878;SDS011;38747;53.140;6.498;2022-07-21T15:09:04;7.70;;;4.70;;
52878;SDS011;38747;53.140;6.498;2022-07-21T15:11:29;6.45;;;4.72;;
52878;SDS011;38747;53.140;6.498;2022-07-21T15:13:55;7.38;;;4.47;;
52878;SDS011;38747;53.140;6.498;2022-07-21T15:16:20;6.97;;;4.40;;
52878;SDS011;38747;53.140;6.498;2022-07-21T15:18:46;5.15;;;4.60;;
52878;SDS011;38747;53.140;6.498;2022-07-21T15:21:15;7.35;;;4.95;;
52878;SDS011;38747;53.140;6.498;2022-07-21T15:23:40;6.32;;;4.78;;
52878;SDS011;38747;53.140;6.498;2022-07-21T15:26:06;8.90;;;5.07;;
52878;SDS011;38747;53.140;6.498;2022-07-21T15:28:32;8.85;;;5.18;;
52878;SDS011;38747;53.140;6.498;2022-07-21T15:30:58;8.30;;;5.47;;
52878;SDS011;38747;53.140;6.498;2022-07-21T15:33:23;6.15;;;4.95;;
52878;SDS011;38747;53.140;6.498;2022-07-21T15:35:49;7.70;;;5.20;;
52878;SDS011;38747;53.140;6.498;2022-07-21T15:38:18;6.30;;;4.28;;
52878;SDS011;38747;53.140;6.498;2022-07-21T15:40:45;7.13;;;4.57;;
52878;SDS011;38747;53.140;6.498;2022-07-21T15:43:11;5.63;;;4.50;;
52878;SDS011;38747;53.140;6.498;2022-07-21T15:45:36;5.95;;;4.07;;
52878;SDS011;38747;53.140;6.498;2022-07-21T15:48:02;7.72;;;4.30;;
52878;SDS011;38747;53.140;6.498;2022-07-21T15:50:27;5.68;;;4.45;;
52878;SDS011;38747;53.140;6.498;2022-07-21T15:52:53;7.15;;;4.55;;
52878;SDS011;38747;53.140;6.498;2022-07-21T15:55:19;5.00;;;4.10;;
52878;SDS011;38747;53.140;6.498;2022-07-21T15:57:45;6.70;;;4.55;;
52878;SDS011;38747;53.140;6.498;2022-07-21T16:00:11;7.32;;;4.55;;
52878;SDS011;38747;53.140;6.498;2022-07-21T16:02:41;6.47;;;4.88;;
52878;SDS011;38747;53.140;6.498;2022-07-21T16:05:08;6.53;;;4.82;;
52878;SDS011;38747;53.140;6.498;2022-07-21T16:07:34;5.25;;;4.53;;
52878;SDS011;38747;53.140;6.498;2022-07-21T16:10:00;9.68;;;5.32;;
52878;SDS011;38747;53.140;6.498;2022-07-21T16:12:26;7.65;;;5.43;;
52878;SDS011;38747;53.140;6.498;2022-07-21T16:14:51;8.18;;;6.30;;
52878;SDS011;38747;53.140;6.498;2022-07-21T16:17:17;10.25;;;6.78;;
52878;SDS011;38747;53.140;6.498;2022-07-21T16:19:44;10.32;;;7.75;;
52878;SDS011;38747;53.140;6.498;2022-07-21T16:22:09;12.18;;;9.43;;
52878;SDS011;38747;53.140;6.498;2022-07-21T16:24:35;20.17;;;11.18;;
52878;SDS011;38747;53.140;6.498;2022-07-21T16:27:01;19.13;;;12.52;;
52878;SDS011;38747;53.140;6.498;2022-07-21T16:29:29;18.65;;;11.80;;
52878;SDS011;38747;53.140;6.498;2022-07-21T16:31:54;22.23;;;11.57;;
52878;SDS011;38747;53.140;6.498;2022-07-21T16:34:27;18.35;;;10.48;;
52878;SDS011;38747;53.140;6.498;2022-07-21T16:36:54;12.25;;;8.55;;
52878;SDS011;38747;53.140;6.498;2022-07-21T16:39:20;14.02;;;8.40;;
52878;SDS011;38747;53.140;6.498;2022-07-21T16:41:46;12.40;;;8.68;;
52878;SDS011;38747;53.140;6.498;2022-07-21T16:44:13;13.63;;;8.07;;
52878;SDS011;38747;53.140;6.498;2022-07-21T16:46:44;13.68;;;8.15;;
52878;SDS011;38747;53.140;6.498;2022-07-21T16:49:10;15.60;;;9.02;;
52878;SDS011;38747;53.140;6.498;2022-07-21T16:51:36;15.75;;;7.10;;
52878;SDS011;38747;53.140;6.498;2022-07-21T16:54:02;12.52;;;7.70;;
52878;SDS011;38747;53.140;6.498;2022-07-21T16:56:28;14.80;;;7.45;;
52878;SDS011;38747;53.140;6.498;2022-07-21T17:01:20;13.68;;;6.15;;